sensor_id;sensor_type;location;lat;lon;timestamp;pressure;altitude;pressure_sealevel;temperature;humidity
59073;BME280;44859;51.934;15.554;2023-04-10T00:01:04;100716.13;;;4.11;100.00
59073;BME280;44859;51.934;15.554;2023-04-10T00:03:36;100715.98;;;4.07;100.00
59073;BME280;44859;51.934;15.554;2023-04-10T00:06:08;100712.23;;;4.00;100.00
59073;BME280;44859;51.934;15.554;2023-04-10T00:08:45;100713.96;;;3.98;100.00
59073;BME280;44859;51.934;15.554;2023-04-10T00:11:34;100716.05;;;3.98;100.00
59073;BME280;44859;51.934;15.554;2023-04-10T00:14:03;100712.92;;;3.99;100.00
59073;BME280;44859;51.934;15.554;2023-04-10T00:16:31;100711.37;;;3.96;100.00
59073;BME280;44859;51.934;15.554;2023-04-10T00:19:00;100714.70;;;3.91;100.00
59073;BME280;44859;51.934;15.554;2023-04-10T00:21:29;100710.21;;;3.87;100.00
59073;BME280;44859;51.934;15.554;2023-04-10T00:24:05;100708.69;;;3.82;100.00
59073;BME280;44859;51.934;15.554;2023-04-10T00:26:35;100708.89;;;3.77;100.00
59073;BME280;44859;51.934;15.554;2023-04-10T00:29:07;100707.70;;;3.73;100.00
59073;BME280;44859;51.934;15.554;2023-04-10T00:31:35;100706.33;;;3.68;100.00
59073;BME280;44859;51.934;15.554;2023-04-10T00:34:03;100707.05;;;3.65;100.00
59073;BME280;44859;51.934;15.554;2023-04-10T00:36:32;100709.70;;;3.55;100.00
59073;BME280;44859;51.934;15.554;2023-04-10T00:39:10;100707.31;;;3.47;100.00
59073;BME280;44859;51.934;15.554;2023-04-10T00:41:40;100710.99;;;3.41;100.00
59073;BME280;44859;51.934;15.554;2023-04-10T00:44:08;100709.98;;;3.37;100.00
59073;BME280;44859;51.934;15.554;2023-04-10T00:46:38;100708.76;;;3.36;100.00
59073;BME280;44859;51.934;15.554;2023-04-10T00:49:10;100707.55;;;3.34;100.00
59073;BME280;44859;51.934;15.554;2023-04-10T00:51:47;100704.27;;;3.30;100.00
59073;BME280;44859;51.934;15.554;2023-04-10T00:54:30;100698.92;;;3.23;100.00
59073;BME280;44859;51.934;15.554;2023-04-10T00:57:02;100693.71;;;3.19;100.00
59073;BME280;44859;51.934;15.554;2023-04-10T00:59:34;100690.45;;;3.14;100.00
59073;BME280;44859;51.934;15.554;2023-04-10T01:02:05;100685.08;;;3.11;100.00
59073;BME280;44859;51.934;15.554;2023-04-10T01:04:58;100687.34;;;3.10;100.00
59073;BME280;44859;51.934;15.554;2023-04-10T01:08:16;100690.27;;;3.18;100.00
59073;BME280;44859;51.934;15.554;2023-04-10T01:11:06;100688.48;;;3.29;100.00
59073;BME280;44859;51.934;15.554;2023-04-10T01:16:55;100687.98;;;3.23;100.00
59073;BME280;44859;51.934;15.554;2023-04-10T01:25:47;100697.08;;;3.09;100.00
59073;BME280;44859;51.934;15.554;2023-04-10T01:28:27;100697.25;;;3.05;100.00
59073;BME280;44859;51.934;15.554;2023-04-10T01:31:01;100697.41;;;3.05;100.00
59073;BME280;44859;51.934;15.554;2023-04-10T01:33:51;100698.45;;;3.09;100.00
59073;BME280;44859;51.934;15.554;2023-04-10T01:36:32;100699.85;;;3.10;100.00
59073;BME280;44859;51.934;15.554;2023-04-10T01:39:34;100704.00;;;3.10;100.00
59073;BME280;44859;51.934;15.554;2023-04-10T01:42:05;100705.74;;;3.08;100.00
59073;BME280;44859;51.934;15.554;2023-04-10T01:44:37;100703.48;;;3.08;100.00
59073;BME280;44859;51.934;15.554;2023-04-10T01:47:08;100700.01;;;3.08;100.00
59073;BME280;44859;51.934;15.554;2023-04-10T01:49:39;100699.51;;;3.06;100.00
59073;BME280;44859;51.934;15.554;2023-04-10T01:52:12;100699.52;;;3.02;100.00
59073;BME280;44859;51.934;15.554;2023-04-10T01:54:42;100698.49;;;2.97;100.00
59073;BME280;44859;51.934;15.554;2023-04-10T01:57:14;100696.08;;;2.92;100.00
59073;BME280;44859;51.934;15.554;2023-04-10T01:59:46;100700.60;;;2.88;100.00
59073;BME280;44859;51.934;15.554;2023-04-10T02:02:34;100703.55;;;2.89;100.00
59073;BME280;44859;51.934;15.554;2023-04-10T02:05:28;100704.95;;;2.89;100.00
59073;BME280;44859;51.934;15.554;2023-04-10T02:08:05;100705.64;;;2.87;100.00
59073;BME280;44859;51.934;15.554;2023-04-10T02:13:59;100708.05;;;2.87;100.00
59073;BME280;44859;51.934;15.554;2023-04-10T02:16:30;100707.70;;;2.89;100.00
59073;BME280;44859;51.934;15.554;2023-04-10T02:19:24;100705.98;;;2.86;100.00
59073;BME280;44859;51.934;15.554;2023-04-10T02:21:54;100707.72;;;2.82;100.00
59073;BME280;44859;51.934;15.554;2023-04-10T02:24:24;100706.86;;;2.80;100.00
59073;BME280;44859;51.934;15.554;2023-04-10T02:27:10;100710.52;;;2.79;100.00
59073;BME280;44859;51.934;15.554;2023-04-10T02:29:38;100710.33;;;2.80;100.00
59073;BME280;44859;51.934;15.554;2023-04-10T02:32:30;100705.30;;;2.80;100.00
59073;BME280;44859;51.934;15.554;2023-04-10T02:35:16;100702.19;;;2.77;100.00
59073;BME280;44859;51.934;15.554;2023-04-10T02:38:08;100706.70;;;2.73;100.00
59073;BME280;44859;51.934;15.554;2023-04-10T02:40:37;100706.88;;;2.71;100.00
59073;BME280;44859;51.934;15.554;2023-04-10T02:43:14;100710.70;;;2.71;100.00
59073;BME280;44859;51.934;15.554;2023-04-10T02:45:46;100713.98;;;2.73;100.00
59073;BME280;44859;51.934;15.554;2023-04-10T02:48:14;100710.17;;;2.73;100.00
59073;BME280;44859;51.934;15.554;2023-04-10T02:50:43;100711.73;;;2.70;100.00
59073;BME280;44859;51.934;15.554;2023-04-10T02:53:45;100707.93;;;2.65;100.00
59073;BME280;44859;51.934;15.554;2023-04-10T02:56:15;100711.74;;;2.64;100.00
59073;BME280;44859;51.934;15.554;2023-04-10T02:58:43;100705.84;;;2.67;100.00
59073;BME280;44859;51.934;15.554;2023-04-10T03:01:13;100701.33;;;2.69;100.00
59073;BME280;44859;51.934;15.554;2023-04-10T03:03:50;100700.46;;;2.67;100.00
59073;BME280;44859;51.934;15.554;2023-04-10T03:06:19;100700.11;;;2.68;100.00
59073;BME280;44859;51.934;15.554;2023-04-10T03:09:17;100700.13;;;2.70;100.00
59073;BME280;44859;51.934;15.554;2023-04-10T03:11:55;100705.66;;;2.73;100.00
59073;BME280;44859;51.934;15.554;2023-04-10T03:14:23;100703.39;;;2.78;100.00
59073;BME280;44859;51.934;15.554;2023-04-10T03:17:05;100705.46;;;2.81;100.00
59073;BME280;44859;51.934;15.554;2023-04-10T03:19:34;100702.52;;;2.85;100.00
59073;BME280;44859;51.934;15.554;2023-04-10T03:22:08;100701.45;;;2.88;100.00
59073;BME280;44859;51.934;15.554;2023-04-10T03:24:38;100702.49;;;2.90;100.00
59073;BME280;44859;51.934;15.554;2023-04-10T03:27:08;100701.29;;;2.89;100.00
59073;BME280;44859;51.934;15.554;2023-04-10T03:29:36;100699.20;;;2.90;100.00
59073;BME280;44859;51.934;15.554;2023-04-10T03:32:08;100703.02;;;2.90;100.00
59073;BME280;44859;51.934;15.554;2023-04-10T03:34:36;100704.08;;;2.87;100.00
59073;BME280;44859;51.934;15.554;2023-04-10T03:37:08;100699.91;;;2.85;100.00
59073;BME280;44859;51.934;15.554;2023-04-10T03:39:37;100695.94;;;2.80;100.00
59073;BME280;44859;51.934;15.554;2023-04-10T03:42:15;100696.11;;;2.76;100.00
59073;BME280;44859;51.934;15.554;2023-04-10T03:44:43;100694.89;;;2.76;100.00
59073;BME280;44859;51.934;15.554;2023-04-10T03:47:24;100694.90;;;2.74;100.00
59073;BME280;44859;51.934;15.554;2023-04-10T03:50:14;100693.17;;;2.73;100.00
59073;BME280;44859;51.934;15.554;2023-04-10T03:56:43;100690.05;;;2.74;100.00
59073;BME280;44859;51.934;15.554;2023-04-10T03:59:35;100688.83;;;2.77;100.00
59073;BME280;44859;51.934;15.554;2023-04-10T04:02:06;100689.67;;;2.84;100.00
59073;BME280;44859;51.934;15.554;2023-04-10T04:04:38;100692.27;;;2.90;100.00
59073;BME280;44859;51.934;15.554;2023-04-10T04:07:10;100695.73;;;2.94;100.00
59073;BME280;44859;51.934;15.554;2023-04-10T04:10:03;100696.06;;;2.96;100.00
59073;BME280;44859;51.934;15.554;2023-04-10T04:12:31;100698.31;;;3.01;100.00
59073;BME280;44859;51.934;15.554;2023-04-10T04:15:03;100702.45;;;3.09;100.00
59073;BME280;44859;51.934;15.554;2023-04-10T04:17:35;100706.08;;;3.13;100.00
59073;BME280;44859;51.934;15.554;2023-04-10T04:20:30;100710.72;;;3.23;100.00
59073;BME280;44859;51.934;15.554;2023-04-10T04:22:58;100712.23;;;3.34;100.00
59073;BME280;44859;51.934;15.554;2023-04-10T04:25:28;100712.38;;;3.42;100.00
59073;BME280;44859;51.934;15.554;2023-04-10T04:28:00;100716.00;;;3.48;100.00
59073;BME280;44859;51.934;15.554;2023-04-10T04:30:32;100711.27;;;3.55;100.00
59073;BME280;44859;51.934;15.554;2023-04-10T04:33:23;100711.58;;;3.64;100.00
59073;BME280;44859;51.934;15.554;2023-04-10T04:35:52;100716.73;;;3.70;100.00
59073;BME280;44859;51.934;15.554;2023-04-10T04:38:21;100716.52;;;3.76;100.00
59073;BME280;44859;51.934;15.554;2023-04-10T04:41:13;100719.96;;;3.85;100.00
59073;BME280;44859;51.934;15.554;2023-04-10T04:43:48;100720.95;;;3.95;100.00
59073;BME280;44859;51.934;15.554;2023-04-10T04:46:24;100724.70;;;4.05;100.00
59073;BME280;44859;51.934;15.554;2023-04-10T04:48:57;100725.86;;;4.12;100.00
59073;BME280;44859;51.934;15.554;2023-04-10T04:51:29;100726.68;;;4.19;100.00
59073;BME280;44859;51.934;15.554;2023-04-10T04:53:57;100726.25;;;4.28;100.00
59073;BME280;44859;51.934;15.554;2023-04-10T04:56:27;100732.28;;;4.36;100.00
59073;BME280;44859;51.934;15.554;2023-04-10T04:58:55;100733.27;;;4.42;100.00
59073;BME280;44859;51.934;15.554;2023-04-10T05:01:24;100734.96;;;4.47;100.00
59073;BME280;44859;51.934;15.554;2023-04-10T05:04:13;100732.84;;;4.53;100.00
59073;BME280;44859;51.934;15.554;2023-04-10T05:06:41;100736.09;;;4.59;100.00
59073;BME280;44859;51.934;15.554;2023-04-10T05:09:10;100736.53;;;4.68;100.00
59073;BME280;44859;51.934;15.554;2023-04-10T05:11:39;100737.84;;;4.77;100.00
59073;BME280;44859;51.934;15.554;2023-04-10T05:14:11;100738.09;;;4.85;100.00
59073;BME280;44859;51.934;15.554;2023-04-10T05:16:39;100743.38;;;4.95;100.00
59073;BME280;44859;51.934;15.554;2023-04-10T05:19:07;100745.92;;;5.03;100.00
59073;BME280;44859;51.934;15.554;2023-04-10T05:21:36;100749.84;;;5.11;100.00
59073;BME280;44859;51.934;15.554;2023-04-10T05:24:06;100749.95;;;5.17;100.00
59073;BME280;44859;51.934;15.554;2023-04-10T05:26:45;100750.05;;;5.23;100.00
59073;BME280;44859;51.934;15.554;2023-04-10T05:29:14;100751.69;;;5.31;100.00
59073;BME280;44859;51.934;15.554;2023-04-10T05:31:45;100750.73;;;5.39;100.00
59073;BME280;44859;51.934;15.554;2023-04-10T05:34:13;100752.88;;;5.49;100.00
59073;BME280;44859;51.934;15.554;2023-04-10T05:36:43;100749.61;;;5.60;100.00
59073;BME280;44859;51.934;15.554;2023-04-10T05:39:32;100754.84;;;5.73;100.00
59073;BME280;44859;51.934;15.554;2023-04-10T05:42:28;100755.56;;;5.84;100.00
59073;BME280;44859;51.934;15.554;2023-04-10T05:45:06;100753.66;;;5.96;100.00
59073;BME280;44859;51.934;15.554;2023-04-10T05:47:35;100754.13;;;6.13;100.00
59073;BME280;44859;51.934;15.554;2023-04-10T05:50:15;100755.46;;;6.39;100.00
59073;BME280;44859;51.934;15.554;2023-04-10T05:52:45;100747.24;;;6.71;100.00
59073;BME280;44859;51.934;15.554;2023-04-10T05:55:13;100739.09;;;6.98;100.00
59073;BME280;44859;51.934;15.554;2023-04-10T05:57:47;100738.83;;;7.03;100.00
59073;BME280;44859;51.934;15.554;2023-04-10T06:00:18;100745.48;;;7.11;100.00
59073;BME280;44859;51.934;15.554;2023-04-10T06:02:47;100742.27;;;7.40;100.00
59073;BME280;44859;51.934;15.554;2023-04-10T06:05:18;100743.68;;;7.66;100.00
59073;BME280;44859;51.934;15.554;2023-04-10T06:07:47;100743.90;;;7.87;100.00
59073;BME280;44859;51.934;15.554;2023-04-10T06:10:15;100740.75;;;8.10;100.00
59073;BME280;44859;51.934;15.554;2023-04-10T06:12:51;100745.40;;;8.28;100.00
59073;BME280;44859;51.934;15.554;2023-04-10T06:15:21;100744.71;;;8.57;100.00
59073;BME280;44859;51.934;15.554;2023-04-10T06:17:49;100745.05;;;8.92;100.00
59073;BME280;44859;51.934;15.554;2023-04-10T06:20:24;100741.33;;;9.20;100.00
59073;BME280;44859;51.934;15.554;2023-04-10T06:22:52;100743.48;;;9.36;100.00
59073;BME280;44859;51.934;15.554;2023-04-10T06:25:20;100744.20;;;9.54;100.00
59073;BME280;44859;51.934;15.554;2023-04-10T06:27:49;100742.75;;;9.74;100.00
59073;BME280;44859;51.934;15.554;2023-04-10T06:30:18;100745.39;;;9.85;100.00
59073;BME280;44859;51.934;15.554;2023-04-10T06:32:52;100740.38;;;10.00;100.00
59073;BME280;44859;51.934;15.554;2023-04-10T06:35:39;100738.42;;;10.12;100.00
59073;BME280;44859;51.934;15.554;2023-04-10T06:38:10;100738.61;;;10.27;100.00
59073;BME280;44859;51.934;15.554;2023-04-10T06:40:42;100738.80;;;10.34;100.00
59073;BME280;44859;51.934;15.554;2023-04-10T06:43:11;100741.13;;;10.21;99.06
59073;BME280;44859;51.934;15.554;2023-04-10T06:45:42;100740.46;;;9.97;98.60
59073;BME280;44859;51.934;15.554;2023-04-10T06:48:32;100738.67;;;9.81;98.61
59073;BME280;44859;51.934;15.554;2023-04-10T06:51:24;100740.64;;;9.68;97.95
59073;BME280;44859;51.934;15.554;2023-04-10T06:53:53;100742.91;;;9.74;98.02
59073;BME280;44859;51.934;15.554;2023-04-10T06:56:21;100740.83;;;9.91;97.68
59073;BME280;44859;51.934;15.554;2023-04-10T06:58:50;100741.50;;;10.02;96.92
59073;BME280;44859;51.934;15.554;2023-04-10T07:01:31;100740.84;;;10.13;96.34
59073;BME280;44859;51.934;15.554;2023-04-10T07:04:35;100738.58;;;10.35;95.77
59073;BME280;44859;51.934;15.554;2023-04-10T07:07:03;100735.60;;;10.51;94.98
59073;BME280;44859;51.934;15.554;2023-04-10T07:09:37;100740.41;;;10.59;94.02
59073;BME280;44859;51.934;15.554;2023-04-10T07:12:06;100735.22;;;10.52;92.79
59073;BME280;44859;51.934;15.554;2023-04-10T07:14:37;100738.61;;;10.28;92.16
59073;BME280;44859;51.934;15.554;2023-04-10T07:17:26;100741.88;;;10.07;92.12
59073;BME280;44859;51.934;15.554;2023-04-10T07:19:54;100743.74;;;9.93;91.92
59073;BME280;44859;51.934;15.554;2023-04-10T07:25:33;100738.13;;;10.27;91.71
59073;BME280;44859;51.934;15.554;2023-04-10T07:28:08;100736.89;;;10.38;91.26
59073;BME280;44859;51.934;15.554;2023-04-10T07:33:38;100736.84;;;10.61;89.67
59073;BME280;44859;51.934;15.554;2023-04-10T07:36:09;100729.22;;;10.88;89.01
59073;BME280;44859;51.934;15.554;2023-04-10T07:38:39;100730.45;;;11.03;88.83
59073;BME280;44859;51.934;15.554;2023-04-10T07:41:09;100731.64;;;11.15;86.77
59073;BME280;44859;51.934;15.554;2023-04-10T07:43:42;100731.01;;;10.88;86.44
59073;BME280;44859;51.934;15.554;2023-04-10T07:46:23;100728.91;;;10.93;86.68
59073;BME280;44859;51.934;15.554;2023-04-10T07:49:01;100730.80;;;11.23;86.53
59073;BME280;44859;51.934;15.554;2023-04-10T07:54:26;100730.25;;;11.84;83.98
59073;BME280;44859;51.934;15.554;2023-04-10T07:56:55;100727.48;;;11.79;83.72
59073;BME280;44859;51.934;15.554;2023-04-10T07:59:29;100721.74;;;11.77;83.08
59073;BME280;44859;51.934;15.554;2023-04-10T08:02:17;100716.80;;;11.59;82.63
59073;BME280;44859;51.934;15.554;2023-04-10T08:04:55;100719.04;;;11.60;83.05
59073;BME280;44859;51.934;15.554;2023-04-10T08:07:44;100720.95;;;11.42;81.86
59073;BME280;44859;51.934;15.554;2023-04-10T08:10:16;100728.22;;;11.17;82.23
59073;BME280;44859;51.934;15.554;2023-04-10T08:12:45;100729.34;;;11.25;82.10
59073;BME280;44859;51.934;15.554;2023-04-10T08:15:14;100726.40;;;11.28;81.75
59073;BME280;44859;51.934;15.554;2023-04-10T08:17:43;100724.88;;;11.22;82.05
59073;BME280;44859;51.934;15.554;2023-04-10T08:20:21;100721.09;;;11.05;81.40
59073;BME280;44859;51.934;15.554;2023-04-10T08:22:53;100727.60;;;10.95;81.70
59073;BME280;44859;51.934;15.554;2023-04-10T08:25:46;100728.83;;;11.05;81.92
59073;BME280;44859;51.934;15.554;2023-04-10T08:28:15;100729.34;;;11.25;81.77
59073;BME280;44859;51.934;15.554;2023-04-10T08:30:43;100726.33;;;11.45;81.03
59073;BME280;44859;51.934;15.554;2023-04-10T08:33:12;100722.83;;;11.81;80.65
59073;BME280;44859;51.934;15.554;2023-04-10T08:35:41;100723.85;;;12.14;80.18
59073;BME280;44859;51.934;15.554;2023-04-10T08:38:09;100721.11;;;12.33;78.91
59073;BME280;44859;51.934;15.554;2023-04-10T08:40:42;100714.48;;;12.57;78.63
59073;BME280;44859;51.934;15.554;2023-04-10T08:43:15;100712.18;;;12.82;77.81
59073;BME280;44859;51.934;15.554;2023-04-10T08:45:51;100715.43;;;13.01;77.18
59073;BME280;44859;51.934;15.554;2023-04-10T08:48:20;100715.59;;;13.05;76.28
59073;BME280;44859;51.934;15.554;2023-04-10T08:50:49;100712.33;;;12.91;75.70
59073;BME280;44859;51.934;15.554;2023-04-10T08:53:19;100713.68;;;12.68;75.97
59073;BME280;44859;51.934;15.554;2023-04-10T08:55:50;100706.64;;;12.76;75.30
59073;BME280;44859;51.934;15.554;2023-04-10T08:58:19;100711.48;;;12.45;74.59
59073;BME280;44859;51.934;15.554;2023-04-10T09:00:51;100709.30;;;12.12;74.48
59073;BME280;44859;51.934;15.554;2023-04-10T09:03:20;100712.73;;;11.97;75.28
59073;BME280;44859;51.934;15.554;2023-04-10T09:05:53;100705.73;;;12.22;75.39
59073;BME280;44859;51.934;15.554;2023-04-10T09:08:24;100704.17;;;12.26;75.18
59073;BME280;44859;51.934;15.554;2023-04-10T09:10:53;100701.58;;;11.98;74.62
59073;BME280;44859;51.934;15.554;2023-04-10T09:13:40;100699.42;;;11.63;74.79
59073;BME280;44859;51.934;15.554;2023-04-10T09:16:19;100698.23;;;11.62;75.88
59073;BME280;44859;51.934;15.554;2023-04-10T09:18:55;100700.08;;;11.73;75.18
59073;BME280;44859;51.934;15.554;2023-04-10T09:21:24;100697.58;;;11.83;75.10
59073;BME280;44859;51.934;15.554;2023-04-10T09:24:10;100700.22;;;11.97;74.86
59073;BME280;44859;51.934;15.554;2023-04-10T09:26:38;100697.16;;;12.08;73.25
59073;BME280;44859;51.934;15.554;2023-04-10T09:29:10;100695.33;;;11.96;73.93
59073;BME280;44859;51.934;15.554;2023-04-10T09:31:49;100684.95;;;12.22;73.82
59073;BME280;44859;51.934;15.554;2023-04-10T09:34:22;100682.52;;;12.42;73.55
59073;BME280;44859;51.934;15.554;2023-04-10T09:36:54;100676.28;;;12.61;72.60
59073;BME280;44859;51.934;15.554;2023-04-10T09:39:41;100674.39;;;12.84;72.25
59073;BME280;44859;51.934;15.554;2023-04-10T09:42:36;100673.44;;;13.05;69.65
59073;BME280;44859;51.934;15.554;2023-04-10T09:45:29;100676.36;;;12.63;70.27
59073;BME280;44859;51.934;15.554;2023-04-10T09:51:31;100666.71;;;12.70;71.29
59073;BME280;44859;51.934;15.554;2023-04-10T09:54:09;100665.58;;;13.24;70.67
59073;BME280;44859;51.934;15.554;2023-04-10T09:56:48;100664.41;;;13.79;69.90
59073;BME280;44859;51.934;15.554;2023-04-10T09:59:58;100663.73;;;14.08;68.09
59073;BME280;44859;51.934;15.554;2023-04-10T10:02:35;100659.52;;;14.25;67.48
59073;BME280;44859;51.934;15.554;2023-04-10T10:05:14;100662.92;;;14.34;66.63
59073;BME280;44859;51.934;15.554;2023-04-10T10:07:43;100658.27;;;14.18;66.31
59073;BME280;44859;51.934;15.554;2023-04-10T10:10:19;100656.80;;;13.76;65.79
59073;BME280;44859;51.934;15.554;2023-04-10T10:12:51;100652.77;;;13.03;66.55
59073;BME280;44859;51.934;15.554;2023-04-10T10:21:52;100646.35;;;12.52;68.73
59073;BME280;44859;51.934;15.554;2023-04-10T10:24:23;100645.92;;;12.82;69.47
59073;BME280;44859;51.934;15.554;2023-04-10T10:26:57;100644.16;;;12.94;68.95
59073;BME280;44859;51.934;15.554;2023-04-10T10:33:07;100641.46;;;12.55;66.88
59073;BME280;44859;51.934;15.554;2023-04-10T10:36:01;100636.23;;;12.54;67.33
59073;BME280;44859;51.934;15.554;2023-04-10T10:38:40;100633.55;;;13.02;66.77
59073;BME280;44859;51.934;15.554;2023-04-10T10:41:31;100637.64;;;13.56;65.84
59073;BME280;44859;51.934;15.554;2023-04-10T10:47:36;100631.95;;;13.37;64.96
59073;BME280;44859;51.934;15.554;2023-04-10T10:50:14;100628.04;;;12.99;64.69
59073;BME280;44859;51.934;15.554;2023-04-10T10:52:50;100624.20;;;12.59;65.31
59073;BME280;44859;51.934;15.554;2023-04-10T10:55:41;100624.13;;;12.40;66.08
59073;BME280;44859;51.934;15.554;2023-04-10T10:58:51;100619.54;;;12.32;66.00
59073;BME280;44859;51.934;15.554;2023-04-10T11:02:13;100607.16;;;12.50;66.43
59073;BME280;44859;51.934;15.554;2023-04-10T11:04:50;100609.70;;;13.23;66.18
59073;BME280;44859;51.934;15.554;2023-04-10T11:19:30;100589.56;;;14.28;63.41
59073;BME280;44859;51.934;15.554;2023-04-10T11:22:25;100586.96;;;14.48;62.88
59073;BME280;44859;51.934;15.554;2023-04-10T11:25:09;100585.89;;;14.38;62.32
59073;BME280;44859;51.934;15.554;2023-04-10T11:27:44;100577.41;;;14.03;62.66
59073;BME280;44859;51.934;15.554;2023-04-10T11:30:36;100583.88;;;13.47;63.11
59073;BME280;44859;51.934;15.554;2023-04-10T11:33:19;100579.59;;;13.14;63.80
59073;BME280;44859;51.934;15.554;2023-04-10T11:36:03;100574.94;;;13.30;64.71
59073;BME280;44859;51.934;15.554;2023-04-10T11:39:16;100565.25;;;13.99;63.16
59073;BME280;44859;51.934;15.554;2023-04-10T11:41:51;100565.22;;;14.07;61.05
59073;BME280;44859;51.934;15.554;2023-04-10T11:47:16;100556.69;;;14.01;61.72
59073;BME280;44859;51.934;15.554;2023-04-10T11:50:00;100557.13;;;14.03;61.16
59073;BME280;44859;51.934;15.554;2023-04-10T11:55:18;100550.78;;;14.64;60.33
59073;BME280;44859;51.934;15.554;2023-04-10T11:58:22;100555.19;;;14.84;58.72
59073;BME280;44859;51.934;15.554;2023-04-10T12:01:15;100543.89;;;15.29;59.28
59073;BME280;44859;51.934;15.554;2023-04-10T12:03:44;100537.99;;;15.30;57.56
59073;BME280;44859;51.934;15.554;2023-04-10T12:06:42;100532.77;;;15.03;57.25
59073;BME280;44859;51.934;15.554;2023-04-10T12:09:13;100530.28;;;15.03;56.89
59073;BME280;44859;51.934;15.554;2023-04-10T12:11:56;100526.20;;;14.97;55.14
59073;BME280;44859;51.934;15.554;2023-04-10T12:15:22;100523.98;;;14.79;56.32
59073;BME280;44859;51.934;15.554;2023-04-10T12:18:14;100516.69;;;15.25;56.02
59073;BME280;44859;51.934;15.554;2023-04-10T12:20:46;100517.25;;;15.62;56.09
59073;BME280;44859;51.934;15.554;2023-04-10T12:23:19;100515.35;;;15.79;54.78
59073;BME280;44859;51.934;15.554;2023-04-10T12:25:48;100512.21;;;15.47;55.44
59073;BME280;44859;51.934;15.554;2023-04-10T12:28:22;100510.02;;;15.08;55.43
59073;BME280;44859;51.934;15.554;2023-04-10T12:30:56;100504.56;;;15.04;55.92
59073;BME280;44859;51.934;15.554;2023-04-10T12:33:31;100499.66;;;15.29;55.49
59073;BME280;44859;51.934;15.554;2023-04-10T12:36:00;100498.30;;;15.55;55.19
59073;BME280;44859;51.934;15.554;2023-04-10T12:41:08;100489.20;;;16.02;54.24
59073;BME280;44859;51.934;15.554;2023-04-10T12:43:44;100483.20;;;16.10;54.21
59073;BME280;44859;51.934;15.554;2023-04-10T12:46:29;100486.18;;;15.87;53.15
59073;BME280;44859;51.934;15.554;2023-04-10T12:49:13;100483.17;;;15.39;53.66
59073;BME280;44859;51.934;15.554;2023-04-10T12:51:52;100477.05;;;14.93;53.91
59073;BME280;44859;51.934;15.554;2023-04-10T12:54:28;100477.70;;;14.63;54.54
59073;BME280;44859;51.934;15.554;2023-04-10T12:56:57;100471.58;;;14.41;54.80
59073;BME280;44859;51.934;15.554;2023-04-10T12:59:28;100458.94;;;14.60;55.44
59073;BME280;44859;51.934;15.554;2023-04-10T13:01:59;100451.69;;;14.89;55.54
59073;BME280;44859;51.934;15.554;2023-04-10T13:04:29;100448.59;;;15.37;55.05
59073;BME280;44859;51.934;15.554;2023-04-10T13:07:01;100446.31;;;15.82;53.54
59073;BME280;44859;51.934;15.554;2023-04-10T13:09:33;100441.41;;;15.63;53.02
59073;BME280;44859;51.934;15.554;2023-04-10T13:12:01;100437.09;;;15.49;53.27
59073;BME280;44859;51.934;15.554;2023-04-10T13:14:31;100430.45;;;15.59;53.52
59073;BME280;44859;51.934;15.554;2023-04-10T13:17:00;100420.96;;;15.79;53.17
59073;BME280;44859;51.934;15.554;2023-04-10T13:19:29;100415.42;;;15.98;52.58
59073;BME280;44859;51.934;15.554;2023-04-10T13:21:58;100412.89;;;15.93;52.51
59073;BME280;44859;51.934;15.554;2023-04-10T13:24:28;100402.53;;;16.06;52.88
59073;BME280;44859;51.934;15.554;2023-04-10T13:26:57;100401.25;;;16.09;52.21
59073;BME280;44859;51.934;15.554;2023-04-10T13:29:25;100395.00;;;15.98;52.56
59073;BME280;44859;51.934;15.554;2023-04-10T13:31:54;100397.63;;;16.22;52.14
59073;BME280;44859;51.934;15.554;2023-04-10T13:34:24;100391.28;;;16.44;51.91
59073;BME280;44859;51.934;15.554;2023-04-10T13:36:56;100386.77;;;16.59;50.94
59073;BME280;44859;51.934;15.554;2023-04-10T13:39:29;100385.55;;;16.56;50.80
59073;BME280;44859;51.934;15.554;2023-04-10T13:42:05;100379.59;;;16.33;50.90
59073;BME280;44859;51.934;15.554;2023-04-10T13:44:33;100375.92;;;16.01;51.23
59073;BME280;44859;51.934;15.554;2023-04-10T13:47:12;100375.13;;;15.99;51.70
59073;BME280;44859;51.934;15.554;2023-04-10T13:49:41;100365.39;;;16.22;50.54
59073;BME280;44859;51.934;15.554;2023-04-10T13:52:13;100357.73;;;16.39;50.75
59073;BME280;44859;51.934;15.554;2023-04-10T13:54:44;100355.23;;;16.62;49.96
59073;BME280;44859;51.934;15.554;2023-04-10T13:57:18;100356.66;;;16.50;49.77
59073;BME280;44859;51.934;15.554;2023-04-10T13:59:51;100351.99;;;16.37;49.97
59073;BME280;44859;51.934;15.554;2023-04-10T14:02:19;100349.70;;;16.43;50.06
59073;BME280;44859;51.934;15.554;2023-04-10T14:04:48;100347.02;;;16.54;50.01
59073;BME280;44859;51.934;15.554;2023-04-10T14:07:18;100346.72;;;16.23;50.08
59073;BME280;44859;51.934;15.554;2023-04-10T14:09:47;100345.86;;;15.77;50.75
59073;BME280;44859;51.934;15.554;2023-04-10T14:12:18;100341.57;;;15.42;51.16
59073;BME280;44859;51.934;15.554;2023-04-10T14:14:51;100333.80;;;15.30;52.14
59073;BME280;44859;51.934;15.554;2023-04-10T14:17:20;100333.22;;;15.48;52.72
59073;BME280;44859;51.934;15.554;2023-04-10T14:19:49;100333.62;;;15.74;51.30
59073;BME280;44859;51.934;15.554;2023-04-10T14:22:19;100329.64;;;15.61;50.93
59073;BME280;44859;51.934;15.554;2023-04-10T14:24:49;100330.48;;;15.64;51.09
59073;BME280;44859;51.934;15.554;2023-04-10T14:27:29;100328.57;;;15.40;50.86